createdAt,value
2023-02-03T00:03:15.351Z,-1.23
2023-02-03T00:08:17.902Z,-1.36
2023-02-03T00:13:19.771Z,-1.30
2023-02-03T00:18:21.664Z,-1.09
2023-02-03T00:23:23.588Z,-0.93
2023-02-03T00:28:25.456Z,-0.94
2023-02-03T00:33:27.341Z,-0.93
2023-02-03T00:38:29.268Z,-0.87
2023-02-03T00:43:31.144Z,-0.80
2023-02-03T00:48:33.048Z,-0.75
2023-02-03T00:53:35.000Z,-0.80
2023-02-03T00:58:36.907Z,-0.70
2023-02-03T01:03:38.792Z,-0.70
2023-02-03T01:08:40.780Z,-0.76
2023-02-03T01:13:42.806Z,-0.71
2023-02-03T01:18:44.791Z,-0.69
2023-02-03T01:23:46.751Z,-0.58
2023-02-03T01:28:53.304Z,-0.51
2023-02-03T01:33:55.513Z,-0.47
2023-02-03T01:38:57.385Z,-0.53
2023-02-03T01:43:59.851Z,-0.55
2023-02-03T01:49:07.675Z,-0.66
2023-02-03T01:54:10.484Z,-0.71
2023-02-03T01:59:12.433Z,-0.73
2023-02-03T02:04:14.307Z,-0.71
2023-02-03T02:09:16.218Z,-0.73
2023-02-03T02:14:18.113Z,-0.77
2023-02-03T02:19:44.363Z,-0.67
2023-02-03T02:25:04.321Z,-0.57
2023-02-03T02:30:36.920Z,-0.44
2023-02-03T02:36:06.133Z,-0.48
2023-02-03T02:41:10.815Z,-0.41
2023-02-03T02:46:37.669Z,-0.49
2023-02-03T02:51:39.738Z,-0.48
2023-02-03T02:56:41.601Z,-0.32
2023-02-03T03:01:43.505Z,-0.54
2023-02-03T03:06:48.257Z,-0.56
2023-02-03T03:12:02.115Z,-0.57
2023-02-03T03:17:06.159Z,-0.54
2023-02-03T03:22:09.299Z,-0.46
2023-02-03T03:27:23.665Z,-0.44
2023-02-03T03:32:25.553Z,-0.38
2023-02-03T03:37:37.298Z,-0.36
2023-02-03T03:42:45.751Z,-0.26
2023-02-03T03:47:48.518Z,-0.19
2023-02-03T03:52:50.208Z,-0.28
2023-02-03T03:58:00.964Z,-0.21
2023-02-03T04:03:07.289Z,-0.20
2023-02-03T04:08:09.331Z,-0.28
2023-02-03T04:13:12.117Z,-0.34
2023-02-03T04:18:14.715Z,-0.30
2023-02-03T04:23:16.912Z,-0.24
2023-02-03T04:28:19.022Z,-0.27
2023-02-03T04:33:20.885Z,-0.29
2023-02-03T04:38:22.671Z,-0.39
2023-02-03T04:43:24.498Z,-0.42
2023-02-03T04:48:26.382Z,-0.37
2023-02-03T04:53:28.135Z,-0.34
2023-02-03T04:58:29.884Z,-0.25
2023-02-03T05:03:31.678Z,-0.20
2023-02-03T05:08:33.427Z,-0.16
2023-02-03T05:13:35.186Z,-0.14
2023-02-03T05:18:37.008Z,-0.08
2023-02-03T05:23:38.742Z,-0.09
2023-02-03T05:28:40.493Z,-0.10
2023-02-03T05:33:42.268Z,-0.14
2023-02-03T05:38:44.053Z,-0.18
2023-02-03T05:43:45.834Z,-0.06
2023-02-03T05:48:47.618Z,-0.07
2023-02-03T05:53:49.363Z,0.05
2023-02-03T05:58:51.097Z,0.03
2023-02-03T06:03:52.954Z,0.02
2023-02-03T06:08:54.792Z,0.08
2023-02-03T06:13:56.747Z,0.04
2023-02-03T06:18:58.490Z,0.18
2023-02-03T06:24:00.228Z,0.30
2023-02-03T06:29:02.053Z,0.30
2023-02-03T06:34:03.814Z,0.35
2023-02-03T06:39:05.548Z,0.23
2023-02-03T06:44:07.657Z,0.30
2023-02-03T06:49:09.408Z,0.41
2023-02-03T06:54:11.815Z,0.36
2023-02-03T06:59:13.813Z,0.35
2023-02-03T07:04:15.620Z,0.58
2023-02-03T07:09:17.378Z,0.77
2023-02-03T07:14:19.134Z,0.83
2023-02-03T07:19:20.878Z,0.97
2023-02-03T07:24:22.624Z,1.18
2023-02-03T07:29:24.404Z,1.87
2023-02-03T07:34:26.138Z,3.48
2023-02-03T07:39:27.909Z,3.07
2023-02-03T07:44:29.670Z,2.82
2023-02-03T07:49:31.419Z,2.46
2023-02-03T07:54:33.183Z,1.98
2023-02-03T07:59:34.911Z,1.87
2023-02-03T08:04:36.802Z,1.86
2023-02-03T08:09:38.622Z,1.88
2023-02-03T08:14:40.369Z,2.22
2023-02-03T08:19:42.107Z,2.30
2023-02-03T08:24:44.270Z,2.29
2023-02-03T08:29:46.045Z,2.44
2023-02-03T08:34:48.595Z,2.35
2023-02-03T08:39:50.880Z,2.60
2023-02-03T08:44:52.642Z,2.48
2023-02-03T08:49:54.376Z,2.27
2023-02-03T08:54:56.154Z,2.24
2023-02-03T08:59:57.886Z,1.92
2023-02-03T09:04:59.720Z,1.80
2023-02-03T09:10:01.494Z,1.65
2023-02-03T09:15:04.948Z,1.61
2023-02-03T09:20:07.390Z,1.76
2023-02-03T09:25:09.151Z,1.64
2023-02-03T09:30:11.672Z,1.41
2023-02-03T09:35:13.477Z,1.44
2023-02-03T09:40:28.220Z,1.48
2023-02-03T09:45:30.698Z,1.55
2023-02-03T09:50:33.927Z,1.55
2023-02-03T09:55:42.289Z,1.64
2023-02-03T10:00:51.579Z,2.18
2023-02-03T10:06:14.836Z,2.36
2023-02-03T10:11:22.255Z,2.59
2023-02-03T10:16:28.486Z,2.42
2023-02-03T10:21:39.282Z,2.36
2023-02-03T10:26:41.078Z,2.22
2023-02-03T10:31:42.979Z,2.06
2023-02-03T10:37:46.358Z,1.95
2023-02-03T10:42:48.203Z,1.96
2023-02-03T10:47:53.814Z,1.91
2023-02-03T10:53:20.137Z,1.71
2023-02-03T10:58:28.621Z,1.73
2023-02-03T11:03:30.430Z,1.85
2023-02-03T11:08:32.497Z,1.86
2023-02-03T11:13:34.304Z,2.09
2023-02-03T11:18:56.176Z,2.29
2023-02-03T11:24:05.082Z,2.10
2023-02-03T11:29:06.939Z,1.94
2023-02-03T11:34:19.562Z,1.94
2023-02-03T11:39:29.248Z,1.97
2023-02-03T11:44:31.026Z,2.22
2023-02-03T11:49:51.359Z,2.23
2023-02-03T11:55:29.291Z,2.09
2023-02-03T12:00:54.942Z,2.20
2023-02-03T12:06:14.525Z,2.18
2023-02-03T12:11:37.094Z,2.24
2023-02-03T12:16:47.897Z,2.44
2023-02-03T12:21:51.739Z,2.05
2023-02-03T12:27:24.323Z,2.14
2023-02-03T12:32:32.400Z,2.14
2023-02-03T12:37:39.949Z,1.89
2023-02-03T12:42:47.911Z,1.89
2023-02-03T12:48:01.068Z,1.94
2023-02-03T12:53:02.579Z,1.94
2023-02-03T12:58:39.963Z,1.79
2023-02-03T13:03:56.151Z,1.70
2023-02-03T13:09:14.212Z,1.81
2023-02-03T13:14:23.210Z,1.98
2023-02-03T13:19:26.738Z,1.95
2023-02-03T13:24:28.682Z,1.86
2023-02-03T13:29:54.360Z,1.78
2023-02-03T13:35:33.240Z,1.72
2023-02-03T13:41:00.135Z,1.51
2023-02-03T13:46:02.111Z,1.36
2023-02-03T13:51:06.360Z,1.19
2023-02-03T13:56:09.055Z,1.24
2023-02-03T14:01:30.592Z,1.23
2023-02-03T14:06:38.472Z,1.27
2023-02-03T14:11:40.489Z,1.27
2023-02-03T14:16:54.677Z,1.17
2023-02-03T14:22:04.216Z,1.14
2023-02-03T14:27:16.375Z,1.12
2023-02-03T14:32:18.096Z,1.04
2023-02-03T14:37:23.644Z,1.21
2023-02-03T14:43:04.895Z,1.01
2023-02-03T14:48:11.350Z,0.87
2023-02-03T14:53:45.455Z,0.90
2023-02-03T14:58:50.801Z,0.88
2023-02-03T15:04:13.914Z,0.92
2023-02-03T15:09:32.080Z,1.04
2023-02-03T15:14:33.919Z,1.03
2023-02-03T15:19:37.979Z,0.91
2023-02-03T15:24:39.823Z,0.90
2023-02-03T15:29:41.699Z,0.88
2023-02-03T15:34:52.205Z,0.87
2023-02-03T15:40:07.130Z,0.96
2023-02-03T15:45:29.366Z,0.99
2023-02-03T15:50:46.097Z,0.88
2023-02-03T15:55:52.442Z,0.72
2023-02-03T16:01:02.086Z,0.68
2023-02-03T16:06:25.511Z,0.67
2023-02-03T16:11:30.397Z,0.56
2023-02-03T16:17:02.755Z,0.41
2023-02-03T16:22:30.309Z,0.52
2023-02-03T16:27:33.554Z,0.53
2023-02-03T16:32:35.561Z,0.49
2023-02-03T16:37:43.799Z,0.46
2023-02-03T16:42:45.609Z,0.45
2023-02-03T16:47:47.396Z,0.36
2023-02-03T16:52:49.366Z,0.45
2023-02-03T16:57:51.178Z,0.41
2023-02-03T17:02:53.123Z,0.37
2023-02-03T17:07:55.044Z,0.31
2023-02-03T17:12:56.844Z,0.26
2023-02-03T17:17:58.896Z,0.23
2023-02-03T17:23:00.802Z,0.18
2023-02-03T17:28:06.267Z,0.21
2023-02-03T17:33:08.457Z,0.22
2023-02-03T17:38:13.288Z,0.22
2023-02-03T17:53:53.487Z,0.05
2023-02-03T17:58:56.328Z,0.06
2023-02-03T18:03:59.587Z,0.10
2023-02-03T18:09:08.502Z,0.09
2023-02-03T18:14:10.471Z,0.04
2023-02-03T18:19:13.749Z,-0.02
2023-02-03T18:24:15.551Z,-0.09
2023-02-03T18:29:17.900Z,-0.18
2023-02-03T18:34:19.775Z,-0.18
2023-02-03T18:39:21.637Z,-0.11
2023-02-03T18:44:23.458Z,0.02
2023-02-03T18:49:25.521Z,0.09
2023-02-03T18:54:28.766Z,0.17
2023-02-03T18:59:32.275Z,0.11
2023-02-03T19:04:34.076Z,0.04
2023-02-03T19:09:35.863Z,-0.10
2023-02-03T19:14:37.764Z,-0.06
2023-02-03T19:19:39.575Z,-0.18
2023-02-03T19:24:41.975Z,-0.12
2023-02-03T19:29:43.911Z,-0.31
2023-02-03T19:34:45.812Z,-0.45
2023-02-03T19:39:47.592Z,-0.56
2023-02-03T19:44:49.340Z,-0.46
2023-02-03T19:49:51.081Z,-0.45
2023-02-03T19:54:52.992Z,-0.50
2023-02-03T19:59:54.865Z,-0.46
2023-02-03T20:04:56.817Z,-0.41
2023-02-03T20:09:58.921Z,-0.40
2023-02-03T20:15:00.815Z,-0.45
2023-02-03T20:20:02.682Z,-0.48
2023-02-03T20:25:04.970Z,-0.43
2023-02-03T20:30:07.252Z,-0.34
2023-02-03T20:35:09.206Z,-0.32
2023-02-03T20:40:15.962Z,-0.29
2023-02-03T20:45:18.335Z,-0.25
2023-02-03T20:50:25.023Z,-0.16
2023-02-03T20:55:28.831Z,-0.23
2023-02-03T21:00:30.899Z,-0.23
2023-02-03T21:05:35.853Z,-0.21
2023-02-03T21:10:37.750Z,-0.26
2023-02-03T21:15:39.628Z,-0.20
2023-02-03T21:20:41.498Z,-0.26
2023-02-03T21:25:43.354Z,-0.32
2023-02-03T21:30:45.256Z,-0.34
2023-02-03T21:35:47.216Z,-0.25
2023-02-03T21:40:49.127Z,-0.11
2023-02-03T21:45:51.142Z,-0.04
2023-02-03T21:50:57.199Z,-0.03
2023-02-03T21:56:17.144Z,-0.08
2023-02-03T22:01:19.850Z,-0.16
2023-02-03T22:06:21.513Z,-0.25
2023-02-03T22:11:25.047Z,-0.24
2023-02-03T22:16:26.968Z,-0.24
2023-02-03T22:21:28.856Z,-0.22
2023-02-03T22:26:30.722Z,-0.17
2023-02-03T22:31:32.769Z,-0.17
2023-02-03T22:36:34.787Z,-0.14
2023-02-03T22:41:36.740Z,-0.13
2023-02-03T22:46:38.705Z,-0.23
2023-02-03T22:51:40.586Z,-0.30
2023-02-03T22:56:42.403Z,-0.20
2023-02-03T23:01:44.303Z,-0.08
2023-02-03T23:06:46.088Z,-0.16
2023-02-03T23:11:47.867Z,-0.16
2023-02-03T23:16:49.745Z,-0.15
2023-02-03T23:21:51.671Z,-0.17
2023-02-03T23:26:53.647Z,-0.12
2023-02-03T23:31:55.598Z,-0.07
2023-02-03T23:36:57.576Z,-0.04
2023-02-03T23:41:59.450Z,-0.09
2023-02-03T23:47:01.285Z,-0.09
2023-02-03T23:52:03.233Z,-0.05
2023-02-03T23:57:05.190Z,-0.11
